Time;durP1;ratioP1;P1;durP2;ratioP2;P2;SDS_P1;SDS_P2;PMS_P1;PMS_P2;Temp;Humidity;BMP_temperature;BMP_pressure;BME280_temperature;BME280_humidity;BME280_pressure;Samples;Min_cycle;Max_cycle;Signal;HPM_P1;HPM_P2
2023/08/30 00:00:17;;;;;;;12.45;6.95;;;;;;;25.28;61.67;99280.31;5072092;28;20028;-78
2023/08/30 00:02:44;;;;;;;11.25;7.00;;;;;;;25.25;62.11;99277.81;5089527;28;20448;-82
2023/08/30 00:05:09;;;;;;;15.77;7.65;;;;;;;25.18;63.18;99274.59;5071933;28;20075;-81
2023/08/30 00:07:35;;;;;;;12.05;6.97;;;;;;;25.13;62.95;99270.41;5090145;28;20052;-78
2023/08/30 00:10:01;;;;;;;9.50;6.70;;;;;;;25.11;63.10;99274.88;5071829;28;20139;-76
2023/08/30 00:12:27;;;;;;;12.27;6.68;;;;;;;25.13;62.35;99268.63;5090099;28;20032;-78
2023/08/30 00:14:52;;;;;;;10.35;6.55;;;;;;;24.98;63.17;99264.00;5088782;28;20036;-78
2023/08/30 00:17:19;;;;;;;13.57;6.45;;;;;;;24.56;62.85;99183.84;5089782;28;20547;-77
2023/08/30 00:19:45;;;;;;;14.57;6.45;;;;;;;25.10;61.88;99255.56;5071983;28;20083;-76
2023/08/30 00:22:11;;;;;;;13.23;6.60;;;;;;;25.18;62.41;99276.34;5072116;28;20029;-79
2023/08/30 00:24:37;;;;;;;14.45;6.95;;;;;;;25.17;62.53;99277.28;5090044;28;20032;-77
2023/08/30 00:27:03;;;;;;;10.30;6.57;;;;;;;24.90;63.20;99239.69;5071837;28;20081;-80
2023/08/30 00:29:29;;;;;;;8.88;5.70;;;;;;;25.08;63.12;99261.84;5090065;28;20033;-80
2023/08/30 00:31:55;;;;;;;16.25;6.72;;;;;;;24.71;63.13;99198.22;5090030;28;20138;-79
2023/08/30 00:34:20;;;;;;;11.70;6.13;;;;;;;25.00;63.49;99260.38;5072080;28;20027;-80
2023/08/30 00:36:46;;;;;;;12.95;6.28;;;;;;;24.76;65.13;99249.06;5071915;28;20053;-79
2023/08/30 00:39:12;;;;;;;13.23;6.40;;;;;;;24.68;65.16;99246.72;5072426;28;20028;-77
2023/08/30 00:41:38;;;;;;;13.70;6.90;;;;;;;24.89;64.71;99267.88;5089941;28;20093;-79
2023/08/30 00:44:04;;;;;;;14.90;6.70;;;;;;;24.62;66.40;99246.09;5090055;28;20024;-79
2023/08/30 00:46:29;;;;;;;14.45;6.80;;;;;;;24.59;65.73;99276.09;5092707;28;20577;-76
2023/08/30 00:48:56;;;;;;;13.50;6.80;;;;;;;24.46;64.87;99245.84;5075404;28;20032;-78
2023/08/30 00:51:22;;;;;;;13.60;6.75;;;;;;;24.54;64.66;99259.59;5075332;28;20052;-79
2023/08/30 00:53:48;;;;;;;15.43;6.97;;;;;;;24.38;65.65;99256.72;5075438;28;20062;-78
2023/08/30 00:56:13;;;;;;;12.23;6.72;;;;;;;24.39;66.08;99269.84;5075447;28;20116;-82
2023/08/30 00:58:39;;;;;;;12.60;6.93;;;;;;;24.09;65.65;99248.16;5093259;28;20512;-79
2023/08/30 01:01:08;;;;;;;17.67;7.90;;;;;;;23.95;66.86;99246.06;5093024;28;20032;-78
2023/08/30 01:03:34;;;;;;;16.20;7.33;;;;;;;23.92;66.38;99245.31;5075811;28;20121;-78
2023/08/30 01:06:00;;;;;;;11.30;6.72;;;;;;;23.49;67.29;99201.16;5076397;28;20042;-79
2023/08/30 01:08:26;;;;;;;13.88;6.90;;;;;;;23.82;67.38;99265.84;5093869;28;20027;-80
2023/08/30 01:11:10;;;;;;;12.95;6.85;;;;;;;23.80;67.22;99263.28;5094525;28;20028;-78
2023/08/30 01:13:44;;;;;;;9.88;7.28;;;;;;;23.66;67.60;99263.75;5093113;28;20059;-80
2023/08/30 01:16:11;;;;;;;17.63;9.18;;;;;;;23.51;67.76;99241.47;5093517;28;20502;-77
2023/08/30 01:18:39;;;;;;;19.90;12.60;;;;;;;23.52;67.95;99253.72;5092555;28;20491;-77
2023/08/30 01:21:11;;;;;;;15.35;9.05;;;;;;;23.55;68.35;99264.16;5092533;28;20085;-77
2023/08/30 01:23:48;;;;;;;18.45;9.35;;;;;;;23.51;68.65;99267.81;5093011;28;20571;-76
2023/08/30 01:26:20;;;;;;;13.93;7.95;;;;;;;23.50;68.36;99265.22;5092893;28;20534;-78
2023/08/30 01:28:48;;;;;;;13.48;8.38;;;;;;;23.42;68.78;99255.81;5093031;28;20028;-81
2023/08/30 01:31:14;;;;;;;14.90;8.05;;;;;;;23.36;69.51;99258.66;5092564;28;20039;-78
2023/08/30 01:33:41;;;;;;;11.90;6.72;;;;;;;23.28;69.35;99252.84;5074452;28;20063;-78
2023/08/30 01:36:07;;;;;;;11.60;7.10;;;;;;;23.31;69.42;99267.66;5092952;28;20036;-80
2023/08/30 01:38:33;;;;;;;9.88;7.20;;;;;;;23.00;69.16;99211.63;5092594;28;20020;-77
2023/08/30 01:41:00;;;;;;;15.52;7.60;;;;;;;23.31;69.36;99267.66;5074619;28;20406;-81
2023/08/30 01:43:30;;;;;;;14.55;7.32;;;;;;;23.18;69.59;99247.03;5092489;28;20039;-80
2023/08/30 01:45:57;;;;;;;12.52;7.10;;;;;;;22.77;69.26;99194.00;5092418;28;20077;-81
2023/08/30 01:48:23;;;;;;;13.60;7.57;;;;;;;23.21;69.56;99275.88;5091335;28;20402;-81
2023/08/30 01:50:49;;;;;;;14.35;8.00;;;;;;;23.17;69.93;99279.53;5092014;28;20020;-78
2023/08/30 01:53:15;;;;;;;13.52;7.68;;;;;;;23.05;70.30;99258.84;5074213;28;20105;-80
2023/08/30 01:55:42;;;;;;;11.95;8.45;;;;;;;23.01;70.53;99273.88;5073912;28;20115;-80
2023/08/30 01:58:09;;;;;;;11.57;7.20;;;;;;;23.02;69.73;99266.88;5074351;28;20036;-80
2023/08/30 02:00:37;;;;;;;10.25;6.68;;;;;;;23.07;68.75;99278.94;5092083;28;20020;-79
2023/08/30 02:03:13;;;;;;;11.15;6.88;;;;;;;23.18;69.08;99272.47;5090811;28;20486;-79
2023/08/30 02:06:08;;;;;;;17.88;7.00;;;;;;;23.08;68.87;99274.56;5091945;28;20028;-84
2023/08/30 02:08:58;;;;;;;10.82;6.72;;;;;;;22.91;69.63;99283.00;5009800;28;20208;-80
2023/08/30 02:11:27;;;;;;;10.73;6.97;;;;;;;22.90;69.78;99284.78;4973494;28;20089;-76
2023/08/30 02:13:54;;;;;;;11.63;6.82;;;;;;;22.89;70.21;99287.44;4989736;28;20129;-78
2023/08/30 02:16:22;;;;;;;11.63;6.82;;;;;;;22.82;70.28;99293.81;4990091;28;20114;-77
2023/08/30 02:18:49;;;;;;;10.60;6.18;;;;;;;22.82;70.23;99288.56;4989896;28;20053;-77
2023/08/30 02:21:15;;;;;;;14.02;7.25;;;;;;;22.94;70.23;99288.16;4973598;28;20497;-80
2023/08/30 02:23:40;;;;;;;14.40;7.13;;;;;;;22.79;70.49;99273.72;4989821;28;20121;-81
2023/08/30 02:26:07;;;;;;;10.20;7.22;;;;;;;22.86;70.49;99283.16;4989807;28;20034;-82
2023/08/30 02:28:33;;;;;;;13.68;7.22;;;;;;;22.52;70.27;99225.50;4989671;28;20062;-77
2023/08/30 02:30:58;;;;;;;12.27;7.22;;;;;;;22.78;70.68;99287.81;4989554;28;20081;-78
2023/08/30 02:33:23;;;;;;;17.55;6.85;;;;;;;22.74;70.53;99297.56;4973493;28;20540;-79
2023/08/30 02:35:49;;;;;;;9.65;6.38;;;;;;;22.82;70.65;99299.06;4972912;28;20034;-78
2023/08/30 02:38:14;;;;;;;11.20;7.00;;;;;;;22.86;70.12;99274.41;4973229;28;20046;-78
2023/08/30 02:40:40;;;;;;;11.38;6.80;;;;;;;23.03;68.95;99271.19;4989676;28;20042;-79
2023/08/30 02:43:05;;;;;;;11.23;5.85;;;;;;;23.09;68.90;99274.50;5002594;28;20075;-78
2023/08/30 02:45:31;;;;;;;11.52;6.10;;;;;;;23.01;70.23;99268.63;5032973;28;20066;-78
2023/08/30 02:47:56;;;;;;;12.75;6.63;;;;;;;22.85;70.82;99254.25;5090973;28;20111;-77
2023/08/30 02:50:23;;;;;;;11.45;6.38;;;;;;;22.49;71.23;99194.06;5090872;28;20024;-81
2023/08/30 02:52:48;;;;;;;13.35;6.85;;;;;;;22.96;72.15;99262.66;5072896;28;20088;-79
2023/08/30 02:55:14;;;;;;;11.90;6.38;;;;;;;22.90;72.21;99260.22;5090912;28;20028;-77
2023/08/30 02:57:39;;;;;;;11.55;5.90;;;;;;;22.98;71.56;99279.25;5091147;28;20476;-79
2023/08/30 03:00:06;;;;;;;9.05;6.45;;;;;;;22.94;71.87;99262.72;5072838;28;20032;-78
2023/08/30 03:02:33;;;;;;;12.98;6.68;;;;;;;22.81;70.95;99255.28;5091525;28;20039;-76
2023/08/30 03:04:59;;;;;;;18.33;7.30;;;;;;;22.93;70.34;99276.78;5091131;28;20411;-81
2023/08/30 03:07:25;;;;;;;12.50;6.10;;;;;;;22.94;69.88;99272.34;5072130;28;20384;-76
2023/08/30 03:09:53;;;;;;;11.63;6.30;;;;;;;23.21;70.27;99277.66;5090938;28;20085;-78
2023/08/30 03:12:20;;;;;;;10.45;6.28;;;;;;;23.07;69.41;99249.13;5090473;28;20039;-79
2023/08/30 03:14:45;;;;;;;13.20;6.97;;;;;;;23.09;69.00;99258.69;5091058;28;20028;-77
2023/08/30 03:17:11;;;;;;;13.52;6.22;;;;;;;23.09;70.55;99278.88;5090881;28;20085;-75
2023/08/30 03:19:36;;;;;;;11.10;6.60;;;;;;;22.91;71.04;99268.06;5090633;28;20077;-75
2023/08/30 03:22:02;;;;;;;11.73;5.75;;;;;;;21.90;71.34;99170.44;5091108;28;20036;-78
2023/08/30 03:24:27;;;;;;;14.18;6.80;;;;;;;22.50;72.00;99303.59;5090669;28;20031;-77
2023/08/30 03:26:52;;;;;;;14.70;7.15;;;;;;;22.49;71.68;99281.69;5090330;28;20032;-78
2023/08/30 03:29:18;;;;;;;18.25;7.75;;;;;;;22.54;71.55;99282.44;5090901;28;20428;-76
2023/08/30 03:31:43;;;;;;;10.05;6.70;;;;;;;22.48;70.93;99274.72;5072108;28;20468;-80
2023/08/30 03:34:09;;;;;;;23.90;8.02;;;;;;;22.46;71.48;99258.97;5090677;28;20035;-78
2023/08/30 03:36:34;;;;;;;15.50;6.65;;;;;;;22.27;71.98;99224.50;5090571;28;20548;-76
2023/08/30 03:39:00;;;;;;;14.90;7.05;;;;;;;22.67;72.57;99280.25;5090752;28;20095;-75
2023/08/30 03:41:25;;;;;;;28.95;8.05;;;;;;;22.42;73.18;99206.56;5090415;28;20028;-78
2023/08/30 03:43:51;;;;;;;30.70;8.05;;;;;;;22.80;74.38;99264.06;5090720;28;20058;-79
2023/08/30 03:46:16;;;;;;;16.55;6.95;;;;;;;22.78;75.93;99274.66;5072396;28;20028;-77
2023/08/30 03:48:42;;;;;;;39.78;9.43;;;;;;;22.74;77.47;99260.75;5090410;28;20024;-78
2023/08/30 03:51:07;;;;;;;10.73;7.38;;;;;;;22.62;77.00;99254.09;5072027;28;20038;-77
2023/08/30 03:53:33;;;;;;;17.25;8.23;;;;;;;22.62;77.01;99264.63;5090548;28;20035;-74
2023/08/30 03:55:59;;;;;;;18.05;7.80;;;;;;;22.54;77.39;99285.06;5072178;28;20031;-76
2023/08/30 03:58:24;;;;;;;23.25;7.90;;;;;;;22.48;76.91;99293.13;5090641;28;20028;-76
2023/08/30 04:00:50;;;;;;;17.08;7.35;;;;;;;22.50;77.18;99293.09;5090247;28;20124;-77
2023/08/30 04:03:15;;;;;;;17.52;7.50;;;;;;;22.34;77.07;99284.78;5090284;28;20087;-76
2023/08/30 04:05:42;;;;;;;24.30;8.30;;;;;;;22.33;76.57;99302.31;5090251;28;20035;-75
2023/08/30 04:08:07;;;;;;;26.92;8.50;;;;;;;22.41;76.28;99302.13;5089728;28;20024;-75
2023/08/30 04:10:37;;;;;;;18.52;7.38;;;;;;;22.30;76.55;99286.63;5068182;28;20038;-75
2023/08/30 04:13:03;;;;;;;;;;;;;;;22.31;77.41;99314.66;5090292;28;20028;-75
2023/08/30 04:15:29;;;;;;;31.50;8.73;;;;;;;22.22;76.98;99300.00;5089910;28;20279;-75
2023/08/30 04:17:55;;;;;;;26.92;7.68;;;;;;;22.33;77.41;99315.47;5072189;28;20036;-76
2023/08/30 04:20:20;;;;;;;26.95;7.25;;;;;;;22.04;76.78;99264.59;5075571;28;20035;-74
2023/08/30 04:22:46;;;;;;;21.85;8.02;;;;;;;22.24;77.62;99300.84;5094455;28;20453;-75
2023/08/30 04:25:11;;;;;;;17.52;7.55;;;;;;;22.29;77.11;99311.19;5094540;28;20039;-74
2023/08/30 04:27:37;;;;;;;16.85;7.70;;;;;;;22.26;76.70;99322.66;5094250;28;20027;-74
2023/08/30 04:30:03;;;;;;;20.15;7.68;;;;;;;22.33;76.57;99339.13;5075817;28;20483;-78
2023/08/30 04:32:28;;;;;;;27.70;7.90;;;;;;;22.33;77.09;99339.13;5075891;28;20044;-75
2023/08/30 04:34:54;;;;;;;25.63;7.15;;;;;;;22.40;76.42;99351.19;5093789;28;20111;-78
2023/08/30 04:37:20;;;;;;;14.65;7.68;;;;;;;22.36;75.95;99332.94;5093690;28;20024;-76
2023/08/30 04:39:51;;;;;;;13.73;7.55;;;;;;;22.46;76.01;99353.66;5093337;28;20070;-75
2023/08/30 04:42:16;;;;;;;18.27;8.20;;;;;;;22.42;75.91;99333.63;5075608;28;20024;-76
2023/08/30 04:44:42;;;;;;;20.77;7.97;;;;;;;22.30;76.03;99324.28;5093695;28;20024;-74
2023/08/30 04:47:07;;;;;;;14.27;7.70;;;;;;;22.55;76.42;99355.16;5093928;28;20046;-79
2023/08/30 04:49:34;;;;;;;11.48;7.75;;;;;;;22.25;75.57;99293.78;5093750;28;20036;-75
2023/08/30 04:52:00;;;;;;;15.32;7.93;;;;;;;22.57;76.74;99348.06;5093751;28;20518;-76
2023/08/30 04:54:25;;;;;;;35.58;8.40;;;;;;;22.60;77.12;99358.53;5075344;28;20118;-78
2023/08/30 04:56:52;;;;;;;28.77;8.60;;;;;;;22.60;76.24;99352.38;5093479;28;20052;-79
2023/08/30 04:59:17;;;;;;;32.25;8.52;;;;;;;22.62;76.19;99356.69;5093430;28;20036;-77
2023/08/30 05:01:44;;;;;;;19.50;8.05;;;;;;;22.70;75.53;99343.28;5093175;28;20028;-75
2023/08/30 05:04:10;;;;;;;21.13;8.15;;;;;;;22.76;76.00;99345.72;5093232;28;20032;-75
2023/08/30 05:06:36;;;;;;;21.08;8.02;;;;;;;22.82;75.47;99339.41;5093359;28;20043;-79
2023/08/30 05:09:02;;;;;;;19.67;7.88;;;;;;;22.80;75.56;99333.34;5093278;28;20063;-79
2023/08/30 05:11:28;;;;;;;13.32;7.40;;;;;;;23.01;74.53;99352.00;5093557;28;20542;-77
2023/08/30 05:13:55;;;;;;;15.50;7.72;;;;;;;22.60;74.64;99263.81;5093318;28;20388;-75
2023/08/30 05:16:20;;;;;;;13.20;7.53;;;;;;;23.09;75.11;99335.03;5074727;28;20085;-77
2023/08/30 05:18:47;;;;;;;18.90;8.43;;;;;;;23.21;74.47;99354.00;5093100;28;20035;-78
2023/08/30 05:21:14;;;;;;;14.43;6.85;;;;;;;23.12;74.01;99331.44;5092640;28;20028;-76
2023/08/30 05:23:44;;;;;;;12.75;7.00;;;;;;;23.30;74.37;99348.41;5092450;28;20028;-76
2023/08/30 05:26:12;;;;;;;;;;;;;;;23.33;74.85;99358.88;5093041;28;20028;-73
2023/08/30 05:28:38;;;;;;;14.02;6.65;;;;;;;23.07;73.77;99323.69;5056324;28;19935;-74
2023/08/30 05:31:04;;;;;;;12.10;7.70;;;;;;;23.33;73.73;99347.44;5091335;28;20503;-77
2023/08/30 05:33:30;;;;;;;13.60;7.68;;;;;;;23.14;74.70;99331.38;5092208;28;20031;-74
2023/08/30 05:35:56;;;;;;;11.05;7.65;;;;;;;23.29;74.79;99345.84;5088144;28;20161;-77
2023/08/30 05:38:41;;;;;;;11.73;7.32;;;;;;;23.20;75.71;99339.13;5058143;28;20474;-75
2023/08/30 05:41:07;;;;;;;17.23;7.22;;;;;;;23.27;75.67;99349.38;5043615;28;20040;-75
2023/08/30 05:43:33;;;;;;;17.40;7.57;;;;;;;23.33;74.03;99329.03;5049001;28;20543;-74
2023/08/30 05:46:02;;;;;;;13.07;8.18;;;;;;;23.59;73.98;99343.97;5052619;28;20033;-74
2023/08/30 05:48:28;;;;;;;14.70;7.63;;;;;;;23.62;75.47;99342.97;5045647;28;20044;-75
2023/08/30 05:50:53;;;;;;;22.90;8.35;;;;;;;23.37;75.38;99292.00;5032622;28;20071;-75
2023/08/30 05:53:19;;;;;;;16.77;8.95;;;;;;;23.40;73.66;99286.63;5049516;28;20492;-81
2023/08/30 05:55:44;;;;;;;14.15;9.20;;;;;;;23.93;73.62;99358.59;5049600;28;20109;-77
2023/08/30 05:58:10;;;;;;;17.45;9.85;;;;;;;23.63;73.03;99313.94;5049608;28;20044;-75
2023/08/30 06:00:35;;;;;;;21.85;11.02;;;;;;;23.68;73.33;99297.97;5049497;28;20040;-76
2023/08/30 06:03:02;;;;;;;16.17;11.25;;;;;;;23.66;72.49;99281.34;5065729;28;20123;-75
2023/08/30 06:05:28;;;;;;;16.13;10.27;;;;;;;24.22;70.64;99356.66;5068350;28;20032;-76
2023/08/30 06:07:54;;;;;;;19.85;11.07;;;;;;;24.02;71.25;99352.13;5066597;28;20177;-74
2023/08/30 06:10:20;;;;;;;28.58;11.27;;;;;;;24.16;72.34;99373.59;5024450;28;20083;-76
2023/08/30 06:12:45;;;;;;;23.23;10.32;;;;;;;24.16;73.27;99364.78;5029384;28;20483;-73
2023/08/30 06:15:11;;;;;;;24.67;10.35;;;;;;;24.21;72.35;99361.09;5029192;28;20460;-75
2023/08/30 06:17:37;;;;;;;22.00;9.73;;;;;;;24.24;71.01;99362.75;5008857;28;20046;-73
2023/08/30 06:20:04;;;;;;;24.65;9.23;;;;;;;24.25;71.10;99385.56;5009246;28;20050;-77
2023/08/30 06:22:30;;;;;;;27.23;10.02;;;;;;;24.28;72.04;99380.16;4993594;28;20042;-74
2023/08/30 06:24:56;;;;;;;22.40;10.05;;;;;;;24.18;70.87;99363.81;5021022;28;20044;-75
2023/08/30 06:27:23;;;;;;;29.73;9.20;;;;;;;24.34;71.89;99377.31;5028932;28;20037;-75
2023/08/30 06:29:49;;;;;;;20.00;8.93;;;;;;;24.40;71.94;99378.88;5028494;28;20138;-75
2023/08/30 06:32:15;;;;;;;16.73;7.82;;;;;;;24.46;71.05;99377.75;5028541;28;20132;-76
2023/08/30 06:34:41;;;;;;;15.98;7.93;;;;;;;24.54;71.56;99373.91;5028855;28;20049;-76
2023/08/30 06:37:07;;;;;;;16.08;7.60;;;;;;;24.59;71.97;99379.00;5028848;28;20033;-77
2023/08/30 06:39:34;;;;;;;12.00;7.10;;;;;;;24.50;72.33;99369.66;5028924;28;20041;-74
2023/08/30 06:42:00;;;;;;;9.65;7.22;;;;;;;24.74;74.13;99377.59;5028077;28;20457;-76
2023/08/30 06:44:25;;;;;;;18.52;10.07;;;;;;;24.96;72.71;99382.88;5028468;28;20076;-76
2023/08/30 06:46:51;;;;;;;15.73;8.07;;;;;;;25.06;72.18;99372.81;5030752;28;20026;-74
2023/08/30 06:49:17;;;;;;;13.18;7.72;;;;;;;25.26;71.19;99379.91;5048322;28;20044;-75
2023/08/30 06:51:43;;;;;;;13.07;7.13;;;;;;;25.41;71.80;99394.31;5070675;28;20479;-80
2023/08/30 06:54:09;;;;;;;12.68;6.78;;;;;;;25.41;72.41;99370.53;5070949;28;20031;-76
2023/08/30 06:56:34;;;;;;;10.88;7.10;;;;;;;25.56;71.67;99378.72;5070911;28;20055;-76
2023/08/30 06:59:02;;;;;;;22.25;12.07;;;;;;;25.65;73.23;99365.13;5071046;28;20059;-76
2023/08/30 07:01:27;;;;;;;12.43;7.65;;;;;;;25.62;71.68;99360.81;5070359;28;20028;-81
2023/08/30 07:03:53;;;;;;;14.95;8.18;;;;;;;25.74;74.17;99372.63;5052774;28;20035;-75
2023/08/30 07:06:18;;;;;;;14.27;8.43;;;;;;;25.84;73.93;99373.97;5070832;28;20028;-76
2023/08/30 07:08:43;;;;;;;11.82;8.20;;;;;;;25.97;75.59;99376.91;5069464;28;20107;-74
2023/08/30 07:11:10;;;;;;;14.63;8.30;;;;;;;26.01;73.57;99372.34;5052795;28;20078;-74
2023/08/30 07:13:37;;;;;;;11.25;7.15;;;;;;;26.02;73.01;99365.28;5070767;28;20036;-76
2023/08/30 07:16:03;;;;;;;12.07;8.85;;;;;;;26.19;73.35;99372.50;5052652;28;20052;-78
2023/08/30 07:18:29;;;;;;;13.02;7.43;;;;;;;26.39;74.77;99388.28;5070611;28;20029;-77
2023/08/30 07:20:54;;;;;;;18.40;7.07;;;;;;;26.42;77.11;99376.75;5069060;28;20078;-75
2023/08/30 07:23:21;;;;;;;10.40;7.03;;;;;;;26.58;74.49;99390.97;5070336;28;20407;-77
2023/08/30 07:25:46;;;;;;;12.75;7.55;;;;;;;26.35;72.09;99331.16;5070620;28;20060;-76
2023/08/30 07:28:12;;;;;;;13.77;7.18;;;;;;;26.67;71.42;99384.38;5070419;28;20072;-76
2023/08/30 07:30:37;;;;;;;12.35;7.00;;;;;;;26.85;71.32;99389.75;5070223;28;20028;-78
2023/08/30 07:33:05;;;;;;;12.20;7.45;;;;;;;27.00;70.06;99386.34;5070322;28;20102;-75
2023/08/30 07:35:32;;;;;;;12.85;7.13;;;;;;;27.20;67.77;99382.72;5070068;28;20026;-76
2023/08/30 07:37:58;;;;;;;12.02;6.85;;;;;;;27.36;67.75;99401.38;5070086;28;20082;-77
2023/08/30 07:40:28;;;;;;;11.07;7.25;;;;;;;27.36;67.43;99374.03;5069984;28;20036;-80
2023/08/30 07:42:54;;;;;;;13.43;7.70;;;;;;;27.53;67.39;99381.19;5070005;28;20032;-77
2023/08/30 07:45:19;;;;;;;12.77;6.95;;;;;;;27.63;66.66;99381.53;5051852;28;20028;-76
2023/08/30 07:47:45;;;;;;;11.65;7.15;;;;;;;27.60;66.54;99393.16;5069048;28;20037;-78
2023/08/30 07:50:12;;;;;;;13.50;7.38;;;;;;;27.60;66.01;99388.72;5068920;28;20104;-77
2023/08/30 07:52:37;;;;;;;11.93;7.30;;;;;;;27.66;67.54;99384.03;5052504;28;20044;-77
2023/08/30 07:55:03;;;;;;;12.68;7.40;;;;;;;27.83;66.65;99384.03;5028330;28;20480;-76
2023/08/30 07:57:29;;;;;;;14.75;7.47;;;;;;;27.74;67.89;99393.31;5034106;28;20124;-74
2023/08/30 07:59:54;;;;;;;12.98;7.53;;;;;;;27.75;68.08;99380.91;5034125;28;20120;-76
2023/08/30 08:02:19;;;;;;;12.57;7.43;;;;;;;27.89;67.32;99380.22;5031990;28;20039;-76
2023/08/30 08:04:45;;;;;;;14.43;8.32;;;;;;;27.93;67.16;99379.09;5034296;28;20037;-75
2023/08/30 08:07:10;;;;;;;14.85;7.13;;;;;;;27.49;65.98;99308.91;5034408;28;20040;-74
2023/08/30 08:09:37;;;;;;;11.50;7.40;;;;;;;27.95;64.74;99384.31;5033895;28;20037;-73
2023/08/30 08:12:04;;;;;;;11.77;7.30;;;;;;;28.03;67.26;99374.16;5033920;28;20037;-75
2023/08/30 08:14:30;;;;;;;13.48;7.18;;;;;;;28.07;64.21;99371.28;5034170;28;20069;-75
2023/08/30 08:16:56;;;;;;;14.23;7.05;;;;;;;28.25;62.32;99361.50;5034068;28;20041;-76
2023/08/30 08:19:22;;;;;;;13.43;7.07;;;;;;;28.51;62.93;99377.78;5034230;28;20041;-75
2023/08/30 08:21:49;;;;;;;11.68;6.85;;;;;;;28.70;60.64;99366.19;5034264;28;20043;-73
2023/08/30 08:24:14;;;;;;;14.98;6.85;;;;;;;28.91;60.51;99377.38;5034122;28;20164;-74
2023/08/30 08:26:40;;;;;;;9.38;6.45;;;;;;;29.01;61.06;99373.25;5066041;28;20044;-76
2023/08/30 08:29:06;;;;;;;15.45;7.80;;;;;;;28.82;59.36;99333.59;5076343;28;20107;-77
2023/08/30 08:31:31;;;;;;;17.27;8.95;;;;;;;29.26;59.12;99379.81;5054727;28;20531;-76
2023/08/30 08:34:10;;;;;;;8.48;6.43;;;;;;;29.39;58.66;99374.66;5071808;28;20507;-77
2023/08/30 08:36:36;;;;;;;10.52;7.22;;;;;;;29.51;62.29;99376.59;5056080;28;20029;-77
2023/08/30 08:39:04;;;;;;;13.07;7.10;;;;;;;29.58;59.13;99381.56;5056272;28;20029;-78
2023/08/30 08:41:36;;;;;;;13.07;7.10;;;;;;;29.64;60.90;99375.88;5056084;28;20033;-76
2023/08/30 08:44:04;;;;;;;10.10;7.53;;;;;;;29.63;62.93;99384.78;5055441;28;20090;-76
2023/08/30 08:46:32;;;;;;;10.95;6.55;;;;;;;29.58;57.80;99370.91;5070950;28;20036;-78
2023/08/30 08:49:03;;;;;;;9.20;6.05;;;;;;;29.58;57.35;99365.59;5074870;28;20029;-76
2023/08/30 08:51:30;;;;;;;8.43;6.43;;;;;;;29.51;60.98;99359.81;5076196;28;20029;-78
2023/08/30 08:54:02;;;;;;;11.18;6.80;;;;;;;29.76;60.26;99363.63;5075999;28;20020;-77
2023/08/30 08:56:28;;;;;;;10.20;6.72;;;;;;;29.76;61.04;99345.88;5076317;28;20054;-75
2023/08/30 08:58:55;;;;;;;10.40;7.35;;;;;;;29.97;58.32;99364.13;5075000;28;20037;-75
2023/08/30 09:01:21;;;;;;;11.18;6.53;;;;;;;30.05;57.73;99359.22;5076226;28;20103;-76
2023/08/30 09:03:46;;;;;;;12.80;6.70;;;;;;;29.94;58.21;99351.03;5074542;28;20119;-78
2023/08/30 09:06:12;;;;;;;9.93;6.55;;;;;;;29.75;59.14;99345.97;5072862;28;20035;-78
2023/08/30 09:08:38;;;;;;;9.77;6.40;;;;;;;29.88;59.09;99356.69;5072669;28;20036;-75
2023/08/30 09:11:03;;;;;;;11.15;6.30;;;;;;;29.59;59.98;99292.84;5071481;28;20112;-76
2023/08/30 09:13:30;;;;;;;11.15;6.68;;;;;;;29.85;59.29;99331.16;5072761;28;20032;-77
2023/08/30 09:15:56;;;;;;;12.88;6.50;;;;;;;30.10;58.06;99334.97;5071750;28;20033;-74
2023/08/30 09:18:27;;;;;;;11.88;6.45;;;;;;;30.36;56.20;99345.75;5072894;28;20024;-77
2023/08/30 09:21:05;;;;;;;21.42;6.57;;;;;;;30.57;54.85;99338.25;5071139;28;20055;-75
2023/08/30 09:23:31;;;;;;;10.38;6.75;;;;;;;30.79;54.57;99340.38;5073053;28;20024;-76
2023/08/30 09:25:57;;;;;;;9.75;6.13;;;;;;;30.90;53.33;99329.84;5072384;28;20480;-74
2023/08/30 09:28:22;;;;;;;15.30;6.05;;;;;;;30.88;52.99;99333.59;5071408;28;20058;-74
2023/08/30 09:30:52;;;;;;;11.40;5.65;;;;;;;30.85;53.68;99317.81;5072470;28;20028;-76
2023/08/30 09:33:32;;;;;;;11.90;6.63;;;;;;;30.59;54.04;99259.94;5091260;28;20052;-75
2023/08/30 09:35:59;;;;;;;13.10;6.35;;;;;;;30.69;53.95;99265.53;5092653;28;20461;-74
2023/08/30 09:38:25;;;;;;;13.82;5.57;;;;;;;30.65;54.54;99274.69;5092861;28;20062;-74
2023/08/30 09:40:52;;;;;;;13.43;6.03;;;;;;;31.17;53.53;99315.69;5074460;28;20052;-76
2023/08/30 09:43:24;;;;;;;9.45;5.50;;;;;;;31.31;51.96;99317.41;5092362;28;20465;-76
2023/08/30 09:45:51;;;;;;;11.10;5.95;;;;;;;31.44;52.11;99317.41;5074205;28;20028;-75
2023/08/30 09:48:27;;;;;;;9.98;5.93;;;;;;;31.70;52.27;99328.16;5092623;28;20124;-76
2023/08/30 09:50:56;;;;;;;8.40;6.03;;;;;;;31.92;52.01;99319.50;5092497;28;20051;-75
2023/08/30 09:53:26;;;;;;;11.63;5.72;;;;;;;32.15;49.77;99308.97;5073911;28;20093;-75
2023/08/30 09:55:53;;;;;;;10.48;5.80;;;;;;;32.30;51.27;99309.72;5092288;28;20028;-76
2023/08/30 09:58:21;;;;;;;11.18;5.70;;;;;;;32.42;49.56;99308.84;5091850;28;20545;-76
2023/08/30 10:00:48;;;;;;;8.80;5.60;;;;;;;32.62;47.84;99304.69;5091263;28;20099;-76
2023/08/30 10:03:16;;;;;;;9.77;6.15;;;;;;;32.68;47.25;99284.69;5091616;28;20222;-74
2023/08/30 10:05:42;;;;;;;9.88;5.80;;;;;;;32.84;46.88;99287.94;5092237;28;20131;-76
2023/08/30 10:08:09;;;;;;;8.25;5.90;;;;;;;32.97;48.68;99301.25;5091927;28;20115;-75
2023/08/30 10:10:35;;;;;;;9.50;5.55;;;;;;;33.02;49.14;99291.06;5090576;28;20031;-76
2023/08/30 10:13:02;;;;;;;8.90;5.20;;;;;;;33.17;46.21;99296.22;5091635;28;20031;-76
2023/08/30 10:15:32;;;;;;;10.50;5.93;;;;;;;32.92;47.79;99244.59;5091845;28;20043;-79
2023/08/30 10:17:58;;;;;;;10.80;5.25;;;;;;;33.33;45.82;99286.06;5091447;28;20028;-76
2023/08/30 10:20:24;;;;;;;9.18;5.68;;;;;;;33.12;44.93;99279.66;5092131;28;20104;-77
2023/08/30 10:22:52;;;;;;;10.30;5.68;;;;;;;33.27;44.81;99278.47;5091861;28;20024;-74
2023/08/30 10:25:22;;;;;;;7.43;4.90;;;;;;;33.38;45.52;99269.66;5091811;28;20384;-76
2023/08/30 10:27:49;;;;;;;11.23;5.43;;;;;;;33.64;44.96;99280.16;5092050;28;20124;-75
2023/08/30 10:30:18;;;;;;;8.38;5.15;;;;;;;33.42;46.69;99272.94;5088268;28;20044;-75
2023/08/30 10:32:45;;;;;;;16.02;5.53;;;;;;;33.53;44.58;99283.66;5090212;28;20430;-75
2023/08/30 10:35:15;;;;;;;9.65;5.15;;;;;;;33.26;43.04;99220.63;5089792;28;20020;-75
2023/08/30 10:37:41;;;;;;;10.07;5.43;;;;;;;33.41;45.47;99265.88;5088115;28;20028;-77
2023/08/30 10:40:26;;;;;;;7.18;5.53;;;;;;;33.28;43.88;99265.97;5068242;28;20050;-75
2023/08/30 10:42:59;;;;;;;11.43;6.35;;;;;;;33.58;42.83;99259.22;5068647;28;20036;-74
2023/08/30 10:45:25;;;;;;;8.55;4.93;;;;;;;33.77;43.03;99264.84;5068519;28;20040;-77
2023/08/30 10:48:11;;;;;;;10.50;5.47;;;;;;;33.85;42.94;99251.69;5048492;28;20099;-74
2023/08/30 10:50:36;;;;;;;9.68;5.43;;;;;;;33.99;41.03;99252.44;5048011;28;20041;-76
2023/08/30 10:53:04;;;;;;;10.15;5.30;;;;;;;34.11;37.51;99259.47;5048164;28;20033;-78
2023/08/30 10:55:30;;;;;;;8.18;5.00;;;;;;;34.13;40.46;99229.88;5031531;28;20044;-76
2023/08/30 10:58:01;;;;;;;9.27;5.43;;;;;;;34.33;37.29;99238.94;5048556;28;20458;-75
2023/08/30 11:00:29;;;;;;;7.57;4.82;;;;;;;34.46;35.20;99236.16;5048593;28;20045;-76
2023/08/30 11:02:57;;;;;;;8.80;4.70;;;;;;;34.71;34.89;99228.72;5048184;28;20056;-78
2023/08/30 11:05:24;;;;;;;9.63;4.72;;;;;;;34.89;34.95;99232.56;5048119;28;20045;-79
2023/08/30 11:07:51;;;;;;;10.07;5.20;;;;;;;34.98;34.60;99234.47;5030101;28;20160;-78
2023/08/30 11:10:18;;;;;;;12.23;4.70;;;;;;;35.17;34.32;99237.41;5031220;28;20139;-77
2023/08/30 11:12:45;;;;;;;9.40;4.80;;;;;;;35.01;33.47;99165.47;5048413;28;20103;-77
2023/08/30 11:15:15;;;;;;;6.43;4.50;;;;;;;35.06;32.98;99158.72;5048083;28;20041;-78
2023/08/30 11:17:42;;;;;;;7.90;4.45;;;;;;;35.42;32.29;99215.56;5047822;28;20033;-79
2023/08/30 11:20:19;;;;;;;10.77;4.78;;;;;;;35.12;30.90;99182.31;5047959;28;20527;-74
2023/08/30 11:22:49;;;;;;;7.95;4.28;;;;;;;35.20;31.37;99213.00;5048075;28;20033;-77
2023/08/30 11:25:15;;;;;;;;;;;;;;;35.22;31.97;99213.72;5063001;28;20028;-78